Weather

Rainfall Maps have ended for the season and will begin again on June 1st.

*Note: Some stations are located near irrigated fields and may also report irrigation

Forrest Carberry Carberry North Wawanesa Glenboro Glenora Treherne Gladstone Portage East High Bluff Elm Creek Carman Winkler Kuhl Farm Morris St.Adolphe Steinbach Selkirk Macdonald Shilo Rivers Somerset Reinland Altona Starbuck St.Pierre Winkler




Selkirk - Historical Weather Data
Date Max Temp (°C) Min Temp (°C) Avg Temp (°C) Rain (mm) Avg RH (%)
4/25/2018 21.1 2.1 10.9 0.0 41.0
4/24/2018 9.7 -2.7 2.5 0.0 58.0
4/23/2018 15.5 1.5 8.8 0.0 54.0
4/22/2018 18.4 5.0 11.6 0.0 56.0
4/21/2018 19.1 0.8 9.7 0.0 63.0
4/20/2018 15.9 0.6 8.2 0.0 55.0
4/19/2018 14.6 -1.9 6.4 0.0 46.0
4/18/2018 11.3 -1.0 4.8 0.0 37.0
4/17/2018 11.7 -3.7 3.8 0.0 38.0
4/16/2018 6.0 -6.2 0.2 0.0 51.0
4/15/2018 6.0 -6.6 -0.8 0.0 44.0
4/14/2018 3.3 -10.4 -3.2 0.0 52.0
4/13/2018 -2.1 -12.6 -6.5 0.0 57.0
4/12/2018 -0.4 -7.7 -2.9 0.4 62.0
4/11/2018 1.9 -6.8 -1.5 0.1 56.0
4/10/2018 3.3 -6.0 -1.1 0.0 75.0
4/9/2018 1.4 -15.2 -6.0 0.0 64.0
4/8/2018 -2.9 -17.1 -9.1 0.0 59.0
4/7/2018 -4.2 -16.1 -9.9 0.0 56.0
4/6/2018 -5.6 -17.7 -11.6 0.0 63.0
4/5/2018 -4.5 -13.0 -8.4 0.0 64.0
4/4/2018 -2.4 -15.8 -7.8 0.0 65.0
4/3/2018 -4.6 -21.4 -12.3 0.0 57.0
4/2/2018 -11.5 -20.4 -15.6 0.0 57.0
4/1/2018 -3.1 -14.8 -9.2 0.0 64.0
3/31/2018 -9.3 -18.1 -13.0 0.0 60.0
3/30/2018 -9.4 -19.1 -13.8 0.0 58.0
3/29/2018 -8.6 -15.7 -11.1 0.0 69.0
3/28/2018 2.2 -9.0 -4.3 3.8 77.0
3/27/2018 7.5 -3.1 1.2 0.0 82.0
3/26/2018 5.7 -1.7 1.1 0.0 89.0
3/25/2018 1.1 -0.4 0.4 0.0 77.0
3/24/2018 0.8 -3.2 -0.7 0.0 63.0
3/23/2018 4.8 -3.8 0.3 0.0 68.0
3/22/2018 3.1 -2.6 0.1 0.0 82.0
3/21/2018 3.0 -5.4 -1.2 0.0 87.0
3/20/2018 2.3 -7.6 -2.4 0.0 75.0
3/19/2018 -1.2 -5.5 -3.3 0.0 59.0
3/18/2018 1.8 -4.2 -1.2 0.0 74.0
3/17/2018 2.0 -12.2 -4.9 0.0 61.0
3/16/2018 2.9 -17.4 -6.9 0.0 53.0
3/15/2018 -1.9 -16.9 -9.2 0.0 63.0
3/14/2018 -2.3 -10.9 -6.3 0.0 79.0
3/13/2018 0.7 -16.9 -7.9 0.0 75.0
3/12/2018 -0.1 -13.0 -6.0 0.0 67.0
3/11/2018 -0.9 -10.9 -4.3 0.0 77.0
3/10/2018 1.4 -11.7 -4.7 0.0 69.0
3/9/2018 4.2 -20.9 -11.9 0.0 78.0
3/8/2018 -1.8 -18.6 -10.7 0.0 81.0
3/7/2018 -4.2 -22.4 -12.1 0.0 74.0
3/6/2018 -3.5 -16.0 -8.4 0.0 57.0
3/5/2018 3.3 -3.6 0.0 2.4 71.0
3/4/2018 4.1 -0.8 1.7 0.4 70.0
3/3/2018 5.1 -15.8 -3.9 0.0 65.0
3/2/2018 -0.8 -19.0 -9.5 0.0 77.0
3/1/2018 4.4 -16.6 -7.5 0.0 79.0
2/28/2018 0.4 -12.7 -6.9 0.0 76.0
2/27/2018 -2.5 -13.7 -8.9 0.0 77.0
2/26/2018 -0.8 -15.3 -9.4 0.3 82.0
2/25/2018 -3.7 -14.2 -8.0 0.8 84.0
2/24/2018 -4.1 -17.6 -10.4 0.0 74.0
2/23/2018 -9.1 -21.4 -15.8 0.0 78.0
2/22/2018 -8.9 -23.0 -15.4 0.0 76.0
2/21/2018 -12.5 -23.1 -17.0 0.0 70.0
2/20/2018 -12.9 -19.2 -16.1 0.4 73.0
2/19/2018 -14.9 -26.3 -20.4 0.3 61.0
2/18/2018 -12.3 -23.4 -18.1 0.0 70.0
2/17/2018 -10.3 -19.3 -15.7 0.0 70.0
2/16/2018 -9.5 -20.4 -14.6 0.0 71.0
2/15/2018 -9.7 -24.6 -20.6 0.0 65.0
2/14/2018 -1.1 -10.9 -6.2 0.4 81.0
2/13/2018 -4.8 -21.8 -10.9 0.0 71.0
2/12/2018 -16.2 -30.1 -23.1 0.0 64.0
2/11/2018 -15.2 -29.1 -19.1 0.0 72.0
2/10/2018 -12.9 -25.6 -17.7 0.0 72.0
2/9/2018 -13.6 -27.1 -20.3 0.0 70.0
2/8/2018 -17.2 -26.9 -22.0 0.0 75.0
2/7/2018 -14.5 -25.9 -21.2 0.0 73.0
2/6/2018 -14.6 -29.0 -22.0 0.0 75.0
2/5/2018 -16.1 -26.7 -20.9 0.0 69.0
2/4/2018 -16.8 -31.3 -23.3 1.3 69.0
2/3/2018 -22.1 -30.5 -24.9 0.0 71.0
2/2/2018 -17.6 -30.0 -24.3 0.0 76.0
2/1/2018 -20.4 -27.2 -24.1 0.0 69.0
1/31/2018 -14.0 -20.6 -19.0 0.0 67.0
1/30/2018 -3.4 -25.9 -13.3 0.8 80.0
1/29/2018 -17.4 -28.4 -22.1 0.4 71.0
1/28/2018 -19.1 -25.4 -22.2 0.0 74.0
1/27/2018 -9.0 -20.1 -15.2 0.4 81.0
1/26/2018 -2.9 -9.0 -4.6 1.3 94.0
1/25/2018 -3.3 -16.1 -8.1 0.0 84.0
1/24/2018 -4.5 -16.2 -11.6 0.1 85.0
1/23/2018 -6.2 -8.6 -7.6 0.0 87.0
1/22/2018 -3.9 -8.8 -6.5 0.0 82.0
1/21/2018 -7.5 -10.0 -9.0 0.0 81.0
1/20/2018 -0.8 -7.9 -5.9 0.0 86.0
1/19/2018 3.5 -6.2 -0.9 0.1 82.0
1/18/2018 0.8 -12.4 -6.7 0.1 79.0
1/17/2018 3.1 -15.1 -8.2 0.4 70.0
1/16/2018 -14.3 -27.6 -19.3 0.0 66.0
1/15/2018 -22.9 -27.9 -25.6 0.0 70.0
1/14/2018 -16.0 -23.1 -18.9 0.4 74.0
1/13/2018 -20.0 -30.9 -25.3 0.0 69.0
1/12/2018 -21.0 -31.4 -26.4 0.0 68.0
1/11/2018 -19.9 -29.8 -24.4 0.2 67.0
1/10/2018 -0.2 -20.0 -10.9 0.0 78.0
1/9/2018 0.3 -17.0 -6.8 0.0 76.0
1/8/2018 -3.0 -19.0 -11.4 0.0 74.0
1/7/2018 -2.0 -9.8 -6.0 0.0 82.0
1/6/2018 -9.5 -24.1 -15.3 0.0 71.0
1/5/2018 -20.5 -33.7 -27.2 0.3 70.0
1/4/2018 -18.3 -34.6 -28.6 0.0 69.0
1/3/2018 -21.9 -31.9 -25.5 0.0 73.0
1/2/2018 -13.8 -22.0 -18.0 0.0 70.0
1/1/2018 -17.9 -28.3 -22.8 0.0 67.0
12/31/2017 -24.1 -32.7 -28.5 0.0 70.0
12/30/2017 -27.7 -35.2 -32.0 0.0 66.0
12/29/2017 -24.1 -31.9 -28.3 0.4 71.0
12/28/2017 -16.0 -27.9 -22.2 0.0 75.0
12/27/2017 -23.2 -35.2 -28.7 0.0 68.0
12/26/2017 -25.3 -32.5 -28.3 0.6 68.0
12/25/2017 -27.4 -31.2 -28.9 1.4 65.0
12/24/2017 -21.7 -32.2 -26.5 4.2 73.0
12/23/2017 -10.2 -29.0 -17.3 0.0 78.0
12/22/2017 -10.8 -15.9 -12.6 0.0 77.0
12/21/2017 -14.9 -28.0 -20.9 0.0 77.0
12/20/2017 -15.8 -25.8 -20.2 0.0 80.0
12/19/2017 -2.1 -21.2 -11.5 0.0 68.0
12/18/2017 -0.1 -5.0 -2.0 0.0 78.0
12/17/2017 -3.1 -13.8 -8.4 0.0 86.0
12/16/2017 -8.0 -16.3 -13.0 0.3 85.0
12/15/2017 -12.8 -16.7 -14.4 0.0 83.0
12/14/2017 -10.4 -14.8 -11.6 0.3 85.0
12/13/2017 -8.0 -10.6 -9.3 0.3 92.0
12/12/2017 -7.8 -21.0 -11.2 0.2 90.0
12/11/2017 -5.0 -21.8 -12.0 0.6 84.0
12/10/2017 -4.7 -8.7 -7.1 1.7 85.0
12/9/2017 -6.8 -14.4 -9.7 0.0 82.0
12/8/2017 -3.6 -11.5 -8.5 0.0 83.0
12/7/2017 -6.1 -15.8 -10.0 0.0 80.0
12/6/2017 -12.6 -17.7 -14.6 0.0 72.0
12/5/2017 -12.8 -15.8 -14.6 0.0 78.0
12/4/2017 -2.3 -12.9 -5.5 0.4 89.0
12/3/2017 -1.1 -11.7 -5.0 0.0 91.0
12/2/2017 0.2 -14.2 -5.6 0.0 95.0
12/1/2017 -0.7 -11.4 -5.6 0.0 92.0
11/30/2017 1.1 -3.6 -0.7 0.0 77.0
11/29/2017 3.7 -10.7 -1.6 0.3 72.0
11/28/2017 2.7 -14.6 -6.4 0.0 69.0
11/27/2017 4.8 -7.1 0.2 0.5 77.0
11/26/2017 -2.5 -9.8 -7.3 0.0 83.0
11/25/2017 -3.3 -17.4 -10.7 0.0 78.0
11/24/2017 4.0 -10.2 -1.1 0.0 81.0
11/23/2017 4.3 -10.1 -4.4 0.0 89.0
11/22/2017 -6.6 -18.4 -11.1 0.0 85.0
11/21/2017 -7.9 -16.9 -11.0 0.0 77.0
11/20/2017 1.6 -10.0 -4.5 0.8 84.0
11/19/2017 -3.4 -18.6 -11.7 0.1 75.0
11/18/2017 -9.3 -15.9 -11.8 0.0 77.0
11/17/2017 0.2 -15.1 -6.3 0.0 78.0
11/16/2017 -1.1 -9.4 -6.2 0.0 79.0
11/15/2017 -1.4 -8.2 -5.4 0.5 89.0
11/14/2017 2.5 -4.0 -0.8 0.0 95.0
11/13/2017 2.1 -10.3 -4.5 0.0 81.0
11/12/2017 -3.4 -8.1 -5.1 0.0 83.0
11/11/2017 -4.5 -7.6 -5.8 0.5 84.0
11/10/2017 -7.1 -21.4 -12.6 0.3 74.0
11/9/2017 -11.7 -22.5 -16.2 0.0 74.0
11/8/2017 -7.2 -15.0 -10.3 0.0 68.0
11/7/2017 -5.5 -17.2 -10.6 0.0 76.0
11/6/2017 -6.0 -15.2 -10.5 0.0 76.0
11/5/2017 -3.5 -12.8 -6.5 0.0 81.0
11/4/2017 -0.5 -4.5 -2.8 3.5 92.0
11/3/2017 -2.1 -11.4 -5.8 0.0 80.0
11/2/2017 -0.8 -4.6 -2.4 0.9 84.0
11/1/2017 0.4 -4.6 -1.9 0.0 77.0
10/31/2017 -3.3 -10.7 -5.2 0.0 83.0